sensor_id;sensor_type;location;lat;lon;timestamp;pressure;altitude;pressure_sealevel;temperature;humidity
7662;BME280;30314;48.184;11.510;2023-03-15T00:00:18;95206.81;;;3.58;100.00
7662;BME280;30314;48.184;11.510;2023-03-15T00:02:44;95192.72;;;3.54;100.00
7662;BME280;30314;48.184;11.510;2023-03-15T00:05:11;95196.66;;;3.62;100.00
7662;BME280;30314;48.184;11.510;2023-03-15T00:07:40;95161.34;;;3.44;100.00
7662;BME280;30314;48.184;11.510;2023-03-15T00:10:07;95200.09;;;3.78;100.00
7662;BME280;30314;48.184;11.510;2023-03-15T00:12:34;95194.88;;;3.88;100.00
7662;BME280;30314;48.184;11.510;2023-03-15T00:15:00;95195.91;;;3.77;100.00
7662;BME280;30314;48.184;11.510;2023-03-15T00:17:27;95188.09;;;3.77;100.00
7662;BME280;30314;48.184;11.510;2023-03-15T00:19:53;95214.22;;;3.87;100.00
7662;BME280;30314;48.184;11.510;2023-03-15T00:22:20;95209.25;;;3.91;100.00
7662;BME280;30314;48.184;11.510;2023-03-15T00:24:48;95216.56;;;3.89;100.00
7662;BME280;30314;48.184;11.510;2023-03-15T00:27:15;95202.97;;;3.82;100.00
7662;BME280;30314;48.184;11.510;2023-03-15T00:29:41;95215.28;;;3.97;100.00
7662;BME280;30314;48.184;11.510;2023-03-15T00:32:08;95212.63;;;3.76;100.00
7662;BME280;30314;48.184;11.510;2023-03-15T00:34:34;95221.72;;;3.68;100.00
7662;BME280;30314;48.184;11.510;2023-03-15T00:37:01;95229.69;;;3.30;100.00
7662;BME280;30314;48.184;11.510;2023-03-15T00:39:27;95222.00;;;3.03;100.00
7662;BME280;30314;48.184;11.510;2023-03-15T00:41:54;95228.41;;;2.85;100.00
7662;BME280;30314;48.184;11.510;2023-03-15T00:44:23;95256.09;;;2.91;100.00
7662;BME280;30314;48.184;11.510;2023-03-15T00:46:49;95281.06;;;2.81;100.00
7662;BME280;30314;48.184;11.510;2023-03-15T00:49:16;95276.19;;;2.25;100.00
7662;BME280;30314;48.184;11.510;2023-03-15T00:51:43;95259.53;;;1.76;100.00
7662;BME280;30314;48.184;11.510;2023-03-15T00:54:10;95290.56;;;1.78;100.00
7662;BME280;30314;48.184;11.510;2023-03-15T00:56:39;95297.88;;;1.59;100.00
7662;BME280;30314;48.184;11.510;2023-03-15T00:59:06;95276.91;;;1.26;100.00
7662;BME280;30314;48.184;11.510;2023-03-15T01:01:33;95273.63;;;1.14;100.00
7662;BME280;30314;48.184;11.510;2023-03-15T01:04:02;95272.66;;;1.20;100.00
7662;BME280;30314;48.184;11.510;2023-03-15T01:06:29;95275.97;;;1.15;100.00
7662;BME280;30314;48.184;11.510;2023-03-15T01:08:57;95276.44;;;1.12;100.00
7662;BME280;30314;48.184;11.510;2023-03-15T01:11:26;95273.41;;;0.98;100.00
7662;BME280;30314;48.184;11.510;2023-03-15T01:13:54;95275.75;;;1.00;100.00
7662;BME280;30314;48.184;11.510;2023-03-15T01:16:21;95241.97;;;0.82;100.00
7662;BME280;30314;48.184;11.510;2023-03-15T01:18:48;95251.13;;;0.85;100.00
7662;BME280;30314;48.184;11.510;2023-03-15T01:21:18;95239.78;;;0.91;100.00
7662;BME280;30314;48.184;11.510;2023-03-15T01:23:46;95256.97;;;0.92;100.00
7662;BME280;30314;48.184;11.510;2023-03-15T01:26:14;95238.13;;;0.85;100.00
7662;BME280;30314;48.184;11.510;2023-03-15T01:28:42;95252.13;;;1.01;100.00
7662;BME280;30314;48.184;11.510;2023-03-15T01:33:44;95222.44;;;0.97;100.00
7662;BME280;30314;48.184;11.510;2023-03-15T01:36:11;95187.88;;;0.79;100.00
7662;BME280;30314;48.184;11.510;2023-03-15T01:38:39;95229.94;;;1.16;100.00
7662;BME280;30314;48.184;11.510;2023-03-15T01:41:06;95251.00;;;1.14;100.00
7662;BME280;30314;48.184;11.510;2023-03-15T01:43:33;95244.94;;;1.08;100.00
7662;BME280;30314;48.184;11.510;2023-03-15T01:46:06;95252.72;;;1.08;100.00
7662;BME280;30314;48.184;11.510;2023-03-15T01:48:40;95234.84;;;1.12;100.00
7662;BME280;30314;48.184;11.510;2023-03-15T01:51:20;95238.16;;;1.07;100.00
7662;BME280;30314;48.184;11.510;2023-03-15T01:54:12;95254.06;;;1.11;100.00
7662;BME280;30314;48.184;11.510;2023-03-15T01:56:46;95269.56;;;1.23;100.00
7662;BME280;30314;48.184;11.510;2023-03-15T01:59:26;95271.50;;;1.10;100.00
7662;BME280;30314;48.184;11.510;2023-03-15T02:01:55;95288.81;;;1.22;100.00
7662;BME280;30314;48.184;11.510;2023-03-15T02:04:33;95278.50;;;1.10;100.00
7662;BME280;30314;48.184;11.510;2023-03-15T02:07:02;95264.72;;;1.09;100.00
7662;BME280;30314;48.184;11.510;2023-03-15T02:09:39;95298.09;;;1.35;100.00
7662;BME280;30314;48.184;11.510;2023-03-15T02:12:08;95284.63;;;1.21;100.00
7662;BME280;30314;48.184;11.510;2023-03-15T02:14:35;95278.50;;;1.27;100.00
7662;BME280;30314;48.184;11.510;2023-03-15T02:17:04;95282.03;;;1.21;100.00
7662;BME280;30314;48.184;11.510;2023-03-15T02:19:48;95268.44;;;1.14;100.00
7662;BME280;30314;48.184;11.510;2023-03-15T02:22:31;95288.09;;;1.26;100.00
7662;BME280;30314;48.184;11.510;2023-03-15T02:25:21;95295.50;;;1.35;100.00
7662;BME280;30314;48.184;11.510;2023-03-15T02:27:53;95307.16;;;1.32;100.00
7662;BME280;30314;48.184;11.510;2023-03-15T02:30:19;95318.53;;;1.26;100.00
7662;BME280;30314;48.184;11.510;2023-03-15T02:32:46;95298.34;;;1.16;100.00
7662;BME280;30314;48.184;11.510;2023-03-15T02:35:22;95316.47;;;1.28;100.00
7662;BME280;30314;48.184;11.510;2023-03-15T02:37:52;95320.09;;;1.27;100.00
7662;BME280;30314;48.184;11.510;2023-03-15T02:40:20;95328.22;;;1.31;100.00
7662;BME280;30314;48.184;11.510;2023-03-15T02:42:50;95337.66;;;1.37;100.00
7662;BME280;30314;48.184;11.510;2023-03-15T02:45:19;95356.44;;;1.22;100.00
7662;BME280;30314;48.184;11.510;2023-03-15T02:47:47;95343.00;;;1.08;100.00
7662;BME280;30314;48.184;11.510;2023-03-15T02:50:15;95314.78;;;0.82;100.00
7662;BME280;30314;48.184;11.510;2023-03-15T02:52:41;95384.38;;;0.92;100.00
7662;BME280;30314;48.184;11.510;2023-03-15T02:55:08;95402.31;;;0.94;100.00
7662;BME280;30314;48.184;11.510;2023-03-15T02:57:35;95412.81;;;0.99;100.00
7662;BME280;30314;48.184;11.510;2023-03-15T03:00:03;95400.34;;;0.84;100.00
7662;BME280;30314;48.184;11.510;2023-03-15T03:02:40;95399.06;;;0.69;100.00
7662;BME280;30314;48.184;11.510;2023-03-15T03:05:10;95430.28;;;0.87;100.00
7662;BME280;30314;48.184;11.510;2023-03-15T03:07:37;95442.88;;;0.78;100.00
7662;BME280;30314;48.184;11.510;2023-03-15T03:10:06;95446.03;;;0.80;100.00
7662;BME280;30314;48.184;11.510;2023-03-15T03:12:43;95477.72;;;0.94;100.00
7662;BME280;30314;48.184;11.510;2023-03-15T03:15:10;95494.00;;;0.89;100.00
7662;BME280;30314;48.184;11.510;2023-03-15T03:17:37;95491.25;;;0.79;100.00
7662;BME280;30314;48.184;11.510;2023-03-15T03:20:08;95492.13;;;0.85;100.00
7662;BME280;30314;48.184;11.510;2023-03-15T03:22:40;95514.41;;;0.80;100.00
7662;BME280;30314;48.184;11.510;2023-03-15T03:25:08;95513.34;;;0.64;100.00
7662;BME280;30314;48.184;11.510;2023-03-15T03:27:39;95532.31;;;0.65;100.00
7662;BME280;30314;48.184;11.510;2023-03-15T03:30:10;95541.81;;;0.71;100.00
7662;BME280;30314;48.184;11.510;2023-03-15T03:32:41;95532.88;;;0.67;100.00
7662;BME280;30314;48.184;11.510;2023-03-15T03:35:08;95564.03;;;0.79;100.00
7662;BME280;30314;48.184;11.510;2023-03-15T03:37:35;95536.66;;;0.47;100.00
7662;BME280;30314;48.184;11.510;2023-03-15T03:40:24;95552.22;;;0.59;100.00
7662;BME280;30314;48.184;11.510;2023-03-15T03:42:50;95569.16;;;0.62;100.00
7662;BME280;30314;48.184;11.510;2023-03-15T03:45:18;95571.00;;;0.49;100.00
7662;BME280;30314;48.184;11.510;2023-03-15T03:47:48;95558.78;;;0.38;100.00
7662;BME280;30314;48.184;11.510;2023-03-15T03:50:17;95591.66;;;0.56;100.00
7662;BME280;30314;48.184;11.510;2023-03-15T03:52:43;95596.38;;;0.59;100.00
7662;BME280;30314;48.184;11.510;2023-03-15T03:55:17;95593.59;;;0.37;100.00
7662;BME280;30314;48.184;11.510;2023-03-15T03:57:43;95608.84;;;0.45;100.00
7662;BME280;30314;48.184;11.510;2023-03-15T04:00:17;95621.84;;;0.45;100.00
7662;BME280;30314;48.184;11.510;2023-03-15T04:02:44;95621.84;;;0.45;100.00
7662;BME280;30314;48.184;11.510;2023-03-15T04:05:13;95622.38;;;0.35;100.00
7662;BME280;30314;48.184;11.510;2023-03-15T04:07:40;95642.25;;;0.53;100.00
7662;BME280;30314;48.184;11.510;2023-03-15T04:10:09;95651.75;;;0.48;100.00
7662;BME280;30314;48.184;11.510;2023-03-15T04:12:44;95661.38;;;0.47;100.00
7662;BME280;30314;48.184;11.510;2023-03-15T04:15:11;95650.75;;;0.49;100.00
7662;BME280;30314;48.184;11.510;2023-03-15T04:17:38;95676.75;;;0.61;100.00
7662;BME280;30314;48.184;11.510;2023-03-15T04:20:05;95684.09;;;0.52;100.00
7662;BME280;30314;48.184;11.510;2023-03-15T04:22:37;95669.84;;;0.43;100.00
7662;BME280;30314;48.184;11.510;2023-03-15T04:25:19;95676.28;;;0.40;100.00
7662;BME280;30314;48.184;11.510;2023-03-15T04:27:54;95652.09;;;0.27;100.00
7662;BME280;30314;48.184;11.510;2023-03-15T04:30:40;95677.53;;;0.49;100.00
7662;BME280;30314;48.184;11.510;2023-03-15T04:33:29;95692.00;;;0.45;100.00
7662;BME280;30314;48.184;11.510;2023-03-15T04:36:21;95699.19;;;0.43;100.00
7662;BME280;30314;48.184;11.510;2023-03-15T04:39:06;95690.47;;;0.25;100.00
7662;BME280;30314;48.184;11.510;2023-03-15T04:41:56;95709.03;;;0.41;100.00
7662;BME280;30314;48.184;11.510;2023-03-15T04:44:41;95706.00;;;0.44;100.00
7662;BME280;30314;48.184;11.510;2023-03-15T04:47:32;95715.03;;;0.41;100.00
7662;BME280;30314;48.184;11.510;2023-03-15T04:50:18;95738.28;;;0.36;100.00
7662;BME280;30314;48.184;11.510;2023-03-15T04:53:08;95730.25;;;0.26;100.00
7662;BME280;30314;48.184;11.510;2023-03-15T04:55:45;95745.59;;;0.27;100.00
7662;BME280;30314;48.184;11.510;2023-03-15T04:58:26;95743.09;;;0.21;100.00
7662;BME280;30314;48.184;11.510;2023-03-15T05:01:15;95759.16;;;0.30;100.00
7662;BME280;30314;48.184;11.510;2023-03-15T05:04:08;95744.31;;;0.06;100.00
7662;BME280;30314;48.184;11.510;2023-03-15T05:06:57;95744.84;;;-0.04;100.00
7662;BME280;30314;48.184;11.510;2023-03-15T05:09:44;95766.09;;;0.05;100.00
7662;BME280;30314;48.184;11.510;2023-03-15T05:12:20;95771.06;;;0.07;100.00
7662;BME280;30314;48.184;11.510;2023-03-15T05:14:50;95790.50;;;0.16;100.00
7662;BME280;30314;48.184;11.510;2023-03-15T05:17:54;95774.34;;;0.02;100.00
7662;BME280;30314;48.184;11.510;2023-03-15T05:20:51;95779.97;;;-0.01;100.00
7662;BME280;30314;48.184;11.510;2023-03-15T05:23:34;95795.72;;;0.16;100.00
7662;BME280;30314;48.184;11.510;2023-03-15T05:26:19;95795.38;;;0.12;100.00
7662;BME280;30314;48.184;11.510;2023-03-15T05:29:06;95814.88;;;0.03;100.00
7662;BME280;30314;48.184;11.510;2023-03-15T05:31:52;95818.28;;;0.04;100.00
7662;BME280;30314;48.184;11.510;2023-03-15T05:34:31;95799.94;;;-0.02;100.00
7662;BME280;30314;48.184;11.510;2023-03-15T05:37:05;95833.59;;;0.24;100.00
7662;BME280;30314;48.184;11.510;2023-03-15T05:39:45;95790.28;;;-0.13;100.00
7662;BME280;30314;48.184;11.510;2023-03-15T05:42:35;95831.81;;;0.06;100.00
7662;BME280;30314;48.184;11.510;2023-03-15T05:45:30;95837.00;;;0.06;100.00
7662;BME280;30314;48.184;11.510;2023-03-15T05:48:05;95839.09;;;-0.03;100.00
7662;BME280;30314;48.184;11.510;2023-03-15T05:50:52;95842.00;;;-0.11;100.00
7662;BME280;30314;48.184;11.510;2023-03-15T05:53:36;95867.88;;;0.14;100.00
7662;BME280;30314;48.184;11.510;2023-03-15T05:56:41;95863.84;;;-0.01;100.00
7662;BME280;30314;48.184;11.510;2023-03-15T05:59:22;95863.75;;;0.06;100.00
7662;BME280;30314;48.184;11.510;2023-03-15T06:02:06;95840.19;;;-0.30;100.00
7662;BME280;30314;48.184;11.510;2023-03-15T06:04:41;95869.19;;;-0.14;100.00
7662;BME280;30314;48.184;11.510;2023-03-15T06:07:10;95870.31;;;-0.10;100.00
7662;BME280;30314;48.184;11.510;2023-03-15T06:09:37;95877.72;;;-0.07;100.00
7662;BME280;30314;48.184;11.510;2023-03-15T06:12:04;95896.75;;;0.06;100.00
7662;BME280;30314;48.184;11.510;2023-03-15T06:14:30;95853.47;;;-0.19;100.00
7662;BME280;30314;48.184;11.510;2023-03-15T06:17:02;95890.03;;;-0.02;100.00
7662;BME280;30314;48.184;11.510;2023-03-15T06:19:29;95904.53;;;0.06;100.00
7662;BME280;30314;48.184;11.510;2023-03-15T06:21:56;95915.94;;;0.05;100.00
7662;BME280;30314;48.184;11.510;2023-03-15T06:24:37;95916.94;;;0.04;100.00
7662;BME280;30314;48.184;11.510;2023-03-15T06:27:03;95912.59;;;-0.03;100.00
7662;BME280;30314;48.184;11.510;2023-03-15T06:29:32;95901.41;;;-0.03;100.00
7662;BME280;30314;48.184;11.510;2023-03-15T06:31:59;95901.06;;;0.12;100.00
7662;BME280;30314;48.184;11.510;2023-03-15T06:34:26;95877.25;;;-0.04;100.00
7662;BME280;30314;48.184;11.510;2023-03-15T06:36:53;95923.56;;;0.18;100.00
7662;BME280;30314;48.184;11.510;2023-03-15T06:39:21;95889.09;;;-0.08;100.00
7662;BME280;30314;48.184;11.510;2023-03-15T06:41:50;95922.47;;;0.07;100.00
7662;BME280;30314;48.184;11.510;2023-03-15T06:44:20;95874.81;;;-0.17;100.00
7662;BME280;30314;48.184;11.510;2023-03-15T06:46:51;95892.56;;;0.05;100.00
7662;BME280;30314;48.184;11.510;2023-03-15T06:49:18;95916.78;;;0.17;100.00
7662;BME280;30314;48.184;11.510;2023-03-15T06:51:45;95899.34;;;0.06;100.00
7662;BME280;30314;48.184;11.510;2023-03-15T06:54:11;95941.88;;;0.42;100.00
7662;BME280;30314;48.184;11.510;2023-03-15T06:56:38;95923.84;;;0.29;100.00
7662;BME280;30314;48.184;11.510;2023-03-15T06:59:04;95902.13;;;0.23;100.00
7662;BME280;30314;48.184;11.510;2023-03-15T07:01:31;95897.31;;;0.08;100.00
7662;BME280;30314;48.184;11.510;2023-03-15T07:03:57;95936.53;;;0.37;100.00
7662;BME280;30314;48.184;11.510;2023-03-15T07:06:24;95911.38;;;0.37;100.00
7662;BME280;30314;48.184;11.510;2023-03-15T07:08:53;95846.06;;;-0.16;100.00
7662;BME280;30314;48.184;11.510;2023-03-15T07:11:19;95944.91;;;0.58;100.00
7662;BME280;30314;48.184;11.510;2023-03-15T07:13:46;95836.53;;;-0.22;100.00
7662;BME280;30314;48.184;11.510;2023-03-15T07:16:12;95946.31;;;0.53;100.00
7662;BME280;30314;48.184;11.510;2023-03-15T07:18:39;95933.66;;;0.45;100.00
7662;BME280;30314;48.184;11.510;2023-03-15T07:21:05;95951.09;;;0.57;100.00
7662;BME280;30314;48.184;11.510;2023-03-15T07:23:33;95924.03;;;0.46;100.00
7662;BME280;30314;48.184;11.510;2023-03-15T07:26:00;95956.13;;;0.70;100.00
7662;BME280;30314;48.184;11.510;2023-03-15T07:28:27;95980.06;;;1.33;100.00
7662;BME280;30314;48.184;11.510;2023-03-15T07:31:01;95954.22;;;3.60;100.00
7662;BME280;30314;48.184;11.510;2023-03-15T07:33:30;95976.78;;;6.26;100.00
7662;BME280;30314;48.184;11.510;2023-03-15T07:35:57;95954.25;;;7.09;83.99
7662;BME280;30314;48.184;11.510;2023-03-15T07:38:25;95983.72;;;7.32;93.32
7662;BME280;30314;48.184;11.510;2023-03-15T07:40:54;95895.06;;;8.05;84.67
7662;BME280;30314;48.184;11.510;2023-03-15T07:43:21;95985.09;;;8.73;70.38
7662;BME280;30314;48.184;11.510;2023-03-15T07:45:49;95969.28;;;7.60;75.56
7662;BME280;30314;48.184;11.510;2023-03-15T07:48:16;95942.81;;;6.57;80.89
7662;BME280;30314;48.184;11.510;2023-03-15T07:50:44;95919.91;;;5.78;81.52
7662;BME280;30314;48.184;11.510;2023-03-15T07:53:10;95979.72;;;4.71;89.56
7662;BME280;30314;48.184;11.510;2023-03-15T07:55:37;95976.38;;;4.31;100.00
7662;BME280;30314;48.184;11.510;2023-03-15T07:58:03;95917.53;;;3.50;100.00
7662;BME280;30314;48.184;11.510;2023-03-15T08:00:31;95915.38;;;3.47;100.00
7662;BME280;30314;48.184;11.510;2023-03-15T08:02:58;95978.13;;;4.26;100.00
7662;BME280;30314;48.184;11.510;2023-03-15T08:05:25;95958.06;;;4.09;100.00
7662;BME280;30314;48.184;11.510;2023-03-15T08:07:54;95990.50;;;4.13;100.00
7662;BME280;30314;48.184;11.510;2023-03-15T08:10:21;95960.47;;;3.25;100.00
7662;BME280;30314;48.184;11.510;2023-03-15T08:12:48;95972.91;;;2.89;100.00
7662;BME280;30314;48.184;11.510;2023-03-15T08:15:15;95985.66;;;2.73;100.00
7662;BME280;30314;48.184;11.510;2023-03-15T08:17:46;95979.75;;;2.78;100.00
7662;BME280;30314;48.184;11.510;2023-03-15T08:20:14;95976.53;;;2.59;100.00
7662;BME280;30314;48.184;11.510;2023-03-15T08:22:44;95960.63;;;2.60;100.00
7662;BME280;30314;48.184;11.510;2023-03-15T08:25:13;95983.59;;;2.46;100.00
7662;BME280;30314;48.184;11.510;2023-03-15T08:27:40;95923.22;;;2.25;100.00
7662;BME280;30314;48.184;11.510;2023-03-15T08:30:09;95989.59;;;2.88;100.00
7662;BME280;30314;48.184;11.510;2023-03-15T08:32:42;95937.16;;;2.60;100.00
7662;BME280;30314;48.184;11.510;2023-03-15T08:35:12;95989.56;;;3.17;100.00
7662;BME280;30314;48.184;11.510;2023-03-15T08:37:41;95990.38;;;3.17;100.00
7662;BME280;30314;48.184;11.510;2023-03-15T08:40:14;95992.19;;;3.17;100.00
7662;BME280;30314;48.184;11.510;2023-03-15T08:42:41;95963.69;;;2.69;100.00
7662;BME280;30314;48.184;11.510;2023-03-15T08:45:08;95977.59;;;2.75;100.00
7662;BME280;30314;48.184;11.510;2023-03-15T08:47:34;95967.28;;;2.68;100.00
7662;BME280;30314;48.184;11.510;2023-03-15T08:50:02;95987.03;;;2.64;100.00
7662;BME280;30314;48.184;11.510;2023-03-15T08:52:31;95969.81;;;2.63;100.00
7662;BME280;30314;48.184;11.510;2023-03-15T08:54:58;95964.25;;;2.71;100.00
7662;BME280;30314;48.184;11.510;2023-03-15T08:57:24;95976.25;;;2.72;100.00
7662;BME280;30314;48.184;11.510;2023-03-15T08:59:52;95970.00;;;2.44;100.00
7662;BME280;30314;48.184;11.510;2023-03-15T09:02:19;95962.09;;;2.15;100.00
7662;BME280;30314;48.184;11.510;2023-03-15T09:04:46;95957.38;;;2.00;100.00
7662;BME280;30314;48.184;11.510;2023-03-15T09:07:12;95959.28;;;2.05;100.00
7662;BME280;30314;48.184;11.510;2023-03-15T09:09:39;95981.00;;;2.22;100.00
7662;BME280;30314;48.184;11.510;2023-03-15T09:12:05;95979.88;;;2.30;100.00
7662;BME280;30314;48.184;11.510;2023-03-15T09:14:32;95980.09;;;2.29;100.00
7662;BME280;30314;48.184;11.510;2023-03-15T09:16:58;95980.06;;;2.41;100.00
7662;BME280;30314;48.184;11.510;2023-03-15T09:19:25;95921.63;;;2.24;100.00
7662;BME280;30314;48.184;11.510;2023-03-15T09:21:51;95951.78;;;2.61;100.00
7662;BME280;30314;48.184;11.510;2023-03-15T09:24:18;95964.13;;;2.66;100.00
7662;BME280;30314;48.184;11.510;2023-03-15T09:26:44;95905.44;;;2.22;100.00
7662;BME280;30314;48.184;11.510;2023-03-15T09:29:11;95898.00;;;2.02;100.00
7662;BME280;30314;48.184;11.510;2023-03-15T09:31:37;95999.34;;;2.80;100.00
7662;BME280;30314;48.184;11.510;2023-03-15T09:34:03;95910.84;;;2.33;100.00
7662;BME280;30314;48.184;11.510;2023-03-15T09:36:31;95983.63;;;2.75;100.00
7662;BME280;30314;48.184;11.510;2023-03-15T09:38:59;95980.25;;;2.92;100.00
7662;BME280;30314;48.184;11.510;2023-03-15T09:41:54;95988.88;;;2.92;100.00
7662;BME280;30314;48.184;11.510;2023-03-15T09:44:31;95993.56;;;2.90;100.00
7662;BME280;30314;48.184;11.510;2023-03-15T09:47:08;95992.53;;;2.91;100.00
7662;BME280;30314;48.184;11.510;2023-03-15T09:49:40;95991.72;;;2.91;100.00
7662;BME280;30314;48.184;11.510;2023-03-15T09:52:36;95973.56;;;2.96;100.00
7662;BME280;30314;48.184;11.510;2023-03-15T09:55:22;96007.91;;;3.22;97.07
7662;BME280;30314;48.184;11.510;2023-03-15T09:57:57;95995.00;;;3.15;99.78
7662;BME280;30314;48.184;11.510;2023-03-15T10:00:40;96002.47;;;2.94;100.00
7662;BME280;30314;48.184;11.510;2023-03-15T10:03:18;95992.53;;;3.08;100.00
7662;BME280;30314;48.184;11.510;2023-03-15T10:05:53;96023.63;;;3.10;100.00
7662;BME280;30314;48.184;11.510;2023-03-15T10:08:20;95987.59;;;2.95;100.00
7662;BME280;30314;48.184;11.510;2023-03-15T10:19:02;96019.00;;;3.29;84.05
7662;BME280;30314;48.184;11.510;2023-03-15T10:24:19;95990.69;;;2.92;94.53
7662;BME280;30314;48.184;11.510;2023-03-15T10:26:48;95983.84;;;3.03;90.73
7662;BME280;30314;48.184;11.510;2023-03-15T10:29:19;95977.91;;;3.07;93.47
7662;BME280;30314;48.184;11.510;2023-03-15T10:31:46;95985.00;;;3.58;92.74
7662;BME280;30314;48.184;11.510;2023-03-15T10:34:14;96004.94;;;3.99;85.85
7662;BME280;30314;48.184;11.510;2023-03-15T10:36:46;95973.19;;;4.07;87.58
7662;BME280;30314;48.184;11.510;2023-03-15T10:39:15;95975.31;;;4.10;75.65
7662;BME280;30314;48.184;11.510;2023-03-15T10:41:44;95987.38;;;4.33;80.19
7662;BME280;30314;48.184;11.510;2023-03-15T10:44:15;96013.38;;;4.62;83.23
7662;BME280;30314;48.184;11.510;2023-03-15T10:46:41;95995.72;;;4.53;86.72
7662;BME280;30314;48.184;11.510;2023-03-15T10:49:13;95983.94;;;4.72;85.39
7662;BME280;30314;48.184;11.510;2023-03-15T10:51:42;95977.47;;;5.07;73.78
7662;BME280;30314;48.184;11.510;2023-03-15T10:54:15;95975.09;;;5.33;80.11
7662;BME280;30314;48.184;11.510;2023-03-15T10:56:49;95969.31;;;5.31;76.38
7662;BME280;30314;48.184;11.510;2023-03-15T10:59:21;95987.75;;;5.42;79.10
7662;BME280;30314;48.184;11.510;2023-03-15T11:01:53;95989.84;;;5.40;82.53
7662;BME280;30314;48.184;11.510;2023-03-15T11:04:33;95980.94;;;5.41;79.58
7662;BME280;30314;48.184;11.510;2023-03-15T11:07:01;95981.47;;;5.43;69.01
7662;BME280;30314;48.184;11.510;2023-03-15T11:09:41;95990.50;;;5.57;75.97
7662;BME280;30314;48.184;11.510;2023-03-15T11:12:27;95979.38;;;5.45;79.45
7662;BME280;30314;48.184;11.510;2023-03-15T11:15:02;95979.34;;;5.72;77.82
7662;BME280;30314;48.184;11.510;2023-03-15T11:17:32;95961.28;;;5.76;68.52
7662;BME280;30314;48.184;11.510;2023-03-15T11:20:02;95969.59;;;6.05;68.65
7662;BME280;30314;48.184;11.510;2023-03-15T11:22:41;95940.34;;;5.76;62.06
7662;BME280;30314;48.184;11.510;2023-03-15T11:25:15;95972.94;;;5.90;67.19
7662;BME280;30314;48.184;11.510;2023-03-15T11:27:43;95953.69;;;5.80;61.08
7662;BME280;30314;48.184;11.510;2023-03-15T11:30:13;95959.75;;;5.85;70.91
7662;BME280;30314;48.184;11.510;2023-03-15T11:32:42;95960.19;;;5.72;58.06
7662;BME280;30314;48.184;11.510;2023-03-15T11:35:13;95980.34;;;5.33;58.78
7662;BME280;30314;48.184;11.510;2023-03-15T11:37:52;95987.94;;;5.07;56.19
7662;BME280;30314;48.184;11.510;2023-03-15T11:40:41;95963.13;;;4.83;59.17
7662;BME280;30314;48.184;11.510;2023-03-15T11:43:39;95976.97;;;4.83;64.42
7662;BME280;30314;48.184;11.510;2023-03-15T11:46:23;95954.25;;;4.39;59.94
7662;BME280;30314;48.184;11.510;2023-03-15T11:49:35;95956.22;;;4.49;65.61
7662;BME280;30314;48.184;11.510;2023-03-15T11:52:03;95958.16;;;4.59;59.16
7662;BME280;30314;48.184;11.510;2023-03-15T11:54:30;95975.00;;;4.68;57.66
7662;BME280;30314;48.184;11.510;2023-03-15T11:57:02;95966.88;;;4.70;61.58
7662;BME280;30314;48.184;11.510;2023-03-15T11:59:34;95970.47;;;4.86;64.24
7662;BME280;30314;48.184;11.510;2023-03-15T12:09:53;95961.31;;;4.61;56.25
7662;BME280;30314;48.184;11.510;2023-03-15T12:17:38;95922.19;;;4.27;62.24
7662;BME280;30314;48.184;11.510;2023-03-15T12:22:46;95935.69;;;4.18;64.47
7662;BME280;30314;48.184;11.510;2023-03-15T12:25:53;95936.38;;;4.31;62.34
7662;BME280;30314;48.184;11.510;2023-03-15T12:28:25;95930.84;;;4.27;63.12
7662;BME280;30314;48.184;11.510;2023-03-15T12:30:55;95925.97;;;4.14;65.57
7662;BME280;30314;48.184;11.510;2023-03-15T12:33:24;95935.84;;;4.29;61.47
7662;BME280;30314;48.184;11.510;2023-03-15T12:36:02;95930.06;;;4.49;62.30
7662;BME280;30314;48.184;11.510;2023-03-15T12:38:36;95895.09;;;4.33;61.67
7662;BME280;30314;48.184;11.510;2023-03-15T12:41:08;95913.94;;;4.35;64.64
7662;BME280;30314;48.184;11.510;2023-03-15T12:44:23;95928.88;;;4.62;64.40
7662;BME280;30314;48.184;11.510;2023-03-15T12:54:31;95902.94;;;4.60;61.88
7662;BME280;30314;48.184;11.510;2023-03-15T12:57:01;95890.19;;;4.64;61.15
7662;BME280;30314;48.184;11.510;2023-03-15T13:02:35;95920.91;;;5.06;64.50
7662;BME280;30314;48.184;11.510;2023-03-15T13:05:11;95926.59;;;5.26;60.75
7662;BME280;30314;48.184;11.510;2023-03-15T13:13:06;95934.84;;;5.12;62.48
7662;BME280;30314;48.184;11.510;2023-03-15T13:16:06;95876.66;;;4.72;58.72
7662;BME280;30314;48.184;11.510;2023-03-15T13:18:32;95911.22;;;5.02;58.09
7662;BME280;30314;48.184;11.510;2023-03-15T13:23:49;95919.97;;;5.18;58.68
7662;BME280;30314;48.184;11.510;2023-03-15T13:29:18;95912.22;;;5.28;59.32
7662;BME280;30314;48.184;11.510;2023-03-15T13:34:36;95918.88;;;5.41;60.37
7662;BME280;30314;48.184;11.510;2023-03-15T13:37:11;95929.69;;;5.50;61.03
7662;BME280;30314;48.184;11.510;2023-03-15T13:39:52;95918.69;;;5.53;61.07
7662;BME280;30314;48.184;11.510;2023-03-15T13:42:21;95926.75;;;5.46;61.75
7662;BME280;30314;48.184;11.510;2023-03-15T13:47:32;95909.63;;;5.33;59.66
7662;BME280;30314;48.184;11.510;2023-03-15T13:50:03;95929.28;;;5.36;60.86
7662;BME280;30314;48.184;11.510;2023-03-15T13:52:31;95906.97;;;5.28;58.03
7662;BME280;30314;48.184;11.510;2023-03-15T13:54:58;95914.13;;;5.38;61.06
7662;BME280;30314;48.184;11.510;2023-03-15T13:57:25;95899.09;;;5.23;61.14
7662;BME280;30314;48.184;11.510;2023-03-15T14:00:01;95885.41;;;5.16;63.43
7662;BME280;30314;48.184;11.510;2023-03-15T14:05:18;95923.53;;;5.34;59.31
7662;BME280;30314;48.184;11.510;2023-03-15T14:07:56;95924.38;;;5.45;56.30
7662;BME280;30314;48.184;11.510;2023-03-15T14:10:28;95908.88;;;5.38;58.89
7662;BME280;30314;48.184;11.510;2023-03-15T14:12:58;95902.44;;;5.18;57.61
7662;BME280;30314;48.184;11.510;2023-03-15T14:18:10;95936.50;;;5.56;62.77
7662;BME280;30314;48.184;11.510;2023-03-15T14:20:42;95938.53;;;5.44;60.90
7662;BME280;30314;48.184;11.510;2023-03-15T14:23:13;95940.19;;;5.55;61.43
7662;BME280;30314;48.184;11.510;2023-03-15T14:25:40;95926.44;;;5.38;58.41
7662;BME280;30314;48.184;11.510;2023-03-15T14:28:12;95922.34;;;5.19;60.43
7662;BME280;30314;48.184;11.510;2023-03-15T14:30:52;95940.50;;;5.31;64.04